createdAt,value
2023-02-11T00:01:36.372Z,298
2023-02-11T00:31:31.885Z,291
2023-02-11T01:01:29.641Z,285
2023-02-11T01:31:30.386Z,279
2023-02-11T02:02:34.644Z,278
2023-02-11T02:32:29.391Z,274
2023-02-11T03:02:31.304Z,275
2023-02-11T03:32:26.189Z,271
2023-02-11T04:02:27.021Z,255
2023-02-11T04:32:26.933Z,246
2023-02-11T05:02:27.248Z,241
2023-02-11T05:32:30.559Z,234
2023-02-11T06:02:27.234Z,226
2023-02-11T06:32:31.415Z,224
2023-02-11T07:02:25.819Z,217
2023-02-11T07:32:28.706Z,230
2023-02-11T08:02:28.793Z,233
2023-02-11T08:32:23.608Z,233
2023-02-11T09:02:27.912Z,236
2023-02-11T09:32:29.861Z,238
2023-02-11T10:02:29.193Z,242
2023-02-11T10:32:28.941Z,244
2023-02-11T11:02:29.780Z,249
2023-02-11T11:32:30.836Z,239
2023-02-11T12:02:32.848Z,239
2023-02-11T12:32:31.112Z,228
2023-02-11T13:02:34.890Z,229
2023-02-11T13:32:33.946Z,234
2023-02-11T14:02:34.929Z,233
2023-02-11T14:32:41.177Z,236
2023-02-11T15:02:37.019Z,236
2023-02-11T15:32:34.950Z,237
2023-02-11T16:02:38.714Z,235
2023-02-11T16:32:33.174Z,235
2023-02-11T17:02:26.906Z,333
2023-02-11T17:32:28.537Z,294
2023-02-11T18:02:24.414Z,285
2023-02-11T18:32:24.189Z,287
2023-02-11T19:02:23.410Z,288
2023-02-11T19:32:21.014Z,282
2023-02-11T20:02:18.398Z,277
2023-02-11T20:32:18.559Z,277
2023-02-11T21:02:21.405Z,263
2023-02-11T21:32:23.515Z,271
2023-02-11T22:02:19.734Z,267
2023-02-11T22:32:22.847Z,262
2023-02-11T23:02:18.142Z,262
2023-02-11T23:32:17.814Z,253
